Time;durP1;ratioP1;P1;durP2;ratioP2;P2;SDS_P1;SDS_P2;PMS_P1;PMS_P2;Temp;Humidity;BMP_temperature;BMP_pressure;BME280_temperature;BME280_humidity;BME280_pressure;Samples;Min_cycle;Max_cycle;Signal;HPM_P1;HPM_P2
2023/04/01 00:00:09;;;;;;;6.10;1.30;;;;;;;8.92;100.00;99032.78;5049584;28;20072;-70
2023/04/01 00:02:35;;;;;;;8.57;1.60;;;;;;;8.95;100.00;99042.97;5049035;28;20183;-70
2023/04/01 00:05:01;;;;;;;5.78;2.05;;;;;;;8.96;100.00;99054.41;5047830;28;20152;-70
2023/04/01 00:07:26;;;;;;;5.47;1.67;;;;;;;8.93;100.00;99049.53;5048882;28;20037;-70
2023/04/01 00:09:52;;;;;;;6.93;2.30;;;;;;;8.97;100.00;99042.75;5049060;28;20101;-70
2023/04/01 00:12:17;;;;;;;11.98;3.42;;;;;;;8.96;100.00;99049.91;5048867;28;20425;-69
2023/04/01 00:14:43;;;;;;;5.47;2.00;;;;;;;8.95;100.00;99053.59;5048823;28;20025;-70
2023/04/01 00:17:08;;;;;;;6.22;1.40;;;;;;;8.98;100.00;99060.28;5048924;28;20164;-70
2023/04/01 00:19:34;;;;;;;5.05;2.10;;;;;;;8.93;100.00;99050.38;5048997;28;20028;-70
2023/04/01 00:21:59;;;;;;;4.00;1.52;;;;;;;8.97;100.00;99051.50;5048925;28;20025;-70
2023/04/01 00:24:25;;;;;;;6.25;1.38;;;;;;;8.99;100.00;99053.97;5048828;28;20202;-70
2023/04/01 00:26:50;;;;;;;3.83;1.27;;;;;;;8.99;100.00;99056.63;5048673;28;20365;-70
2023/04/01 00:29:15;;;;;;;4.18;1.75;;;;;;;8.98;100.00;99052.31;5050472;28;20087;-70
2023/04/01 00:31:41;;;;;;;10.20;2.15;;;;;;;8.99;100.00;99057.41;5052537;28;20036;-70
2023/04/01 00:34:06;;;;;;;3.05;1.38;;;;;;;8.92;100.00;99043.41;5052713;28;20032;-70
2023/04/01 00:36:31;;;;;;;3.58;1.80;;;;;;;8.93;100.00;99053.03;5052539;28;20029;-70
2023/04/01 00:38:59;;;;;;;4.30;1.48;;;;;;;8.98;100.00;99057.63;5051283;28;20118;-70
2023/04/01 00:41:25;;;;;;;4.60;1.73;;;;;;;8.96;100.00;99055.22;5052558;28;20033;-69
2023/04/01 00:43:52;;;;;;;2.65;1.55;;;;;;;8.95;100.00;99056.25;5052619;28;20365;-70
2023/04/01 00:46:18;;;;;;;3.83;1.80;;;;;;;8.92;100.00;99058.56;5052252;28;20056;-69
2023/04/01 00:48:55;;;;;;;2.90;1.83;;;;;;;8.90;100.00;99056.13;5052334;28;20035;-70
2023/04/01 00:51:25;;;;;;;4.43;2.33;;;;;;;8.97;100.00;99069.31;5051097;28;20043;-70
2023/04/01 00:53:52;;;;;;;1.73;1.63;;;;;;;8.97;100.00;99069.31;5052303;28;20029;-70
2023/04/01 00:56:22;;;;;;;5.00;2.05;;;;;;;8.97;100.00;99072.78;5052151;28;20055;-70
2023/04/01 00:58:51;;;;;;;6.63;2.50;;;;;;;8.93;100.00;99065.50;5051407;28;20480;-70
2023/04/01 01:01:18;;;;;;;5.65;2.63;;;;;;;8.95;100.00;99074.06;5051431;28;20037;-69
2023/04/01 01:03:44;;;;;;;6.05;3.58;;;;;;;8.95;100.00;99076.72;5052570;28;20431;-69
2023/04/01 01:06:21;;;;;;;6.22;2.75;;;;;;;8.94;100.00;99070.59;5052047;28;20025;-70
2023/04/01 01:08:52;;;;;;;4.50;1.80;;;;;;;8.98;100.00;99085.03;5052086;28;20039;-70
2023/04/01 01:11:24;;;;;;;5.30;2.40;;;;;;;9.00;100.00;99082.16;5052034;28;20033;-69
2023/04/01 01:14:00;;;;;;;5.47;2.75;;;;;;;8.99;100.00;99077.88;5051798;28;20276;-69
2023/04/01 01:16:29;;;;;;;7.32;2.58;;;;;;;9.00;100.00;99079.50;5051849;28;20111;-70
2023/04/01 01:19:00;;;;;;;5.78;2.60;;;;;;;9.02;100.00;99085.41;5051943;28;20111;-69
2023/04/01 01:21:33;;;;;;;8.53;3.63;;;;;;;9.02;100.00;99087.25;5051764;28;20113;-69
2023/04/01 01:24:26;;;;;;;6.13;2.83;;;;;;;9.01;100.00;99089.09;5051689;28;20079;-69
2023/04/01 01:27:14;;;;;;;6.60;2.92;;;;;;;9.03;100.00;99091.53;5051552;28;20056;-69
2023/04/01 01:29:42;;;;;;;5.10;2.50;;;;;;;9.03;100.00;99088.88;5051730;28;20032;-69
2023/04/01 01:32:30;;;;;;;6.72;2.67;;;;;;;9.03;100.00;99087.00;5051685;28;20029;-69
2023/04/01 01:35:07;;;;;;;6.63;3.20;;;;;;;8.96;100.00;99078.31;5051643;28;20021;-70
2023/04/01 01:37:33;;;;;;;8.48;3.17;;;;;;;8.98;100.00;99090.34;5051485;28;20028;-69
2023/04/01 01:40:03;;;;;;;5.43;2.83;;;;;;;9.00;100.00;99095.44;5051127;28;20166;-69
2023/04/01 01:42:32;;;;;;;6.32;3.35;;;;;;;8.98;100.00;99095.66;5051356;28;20028;-69
2023/04/01 01:44:59;;;;;;;7.15;3.25;;;;;;;8.99;100.00;99099.16;5051484;28;20024;-69
2023/04/01 01:47:26;;;;;;;6.32;3.08;;;;;;;9.00;100.00;99103.44;5051066;28;20118;-70
2023/04/01 01:49:54;;;;;;;5.72;3.17;;;;;;;9.00;100.00;99106.09;5051334;28;20021;-69
2023/04/01 01:52:19;;;;;;;6.35;3.00;;;;;;;9.00;100.00;99111.41;5050986;28;20135;-69
2023/04/01 01:54:53;;;;;;;6.63;3.35;;;;;;;8.99;100.00;99109.78;5051198;28;20124;-70
2023/04/01 01:57:24;;;;;;;6.60;3.78;;;;;;;8.99;100.00;99109.78;5051042;28;20028;-69
2023/04/01 01:59:56;;;;;;;6.88;4.13;;;;;;;8.92;100.00;99099.25;5050885;28;20021;-69
2023/04/01 02:02:24;;;;;;;7.82;4.03;;;;;;;8.98;100.00;99111.63;5050977;28;20049;-69
2023/04/01 02:04:51;;;;;;;7.57;3.85;;;;;;;8.99;100.00;99115.13;5051011;28;20021;-69
2023/04/01 02:07:24;;;;;;;8.18;3.80;;;;;;;8.98;100.00;99114.28;5050852;28;20036;-69
2023/04/01 02:09:50;;;;;;;8.07;4.13;;;;;;;8.98;100.00;99118.78;5051057;28;20020;-69
2023/04/01 02:12:17;;;;;;;10.13;4.80;;;;;;;8.97;100.00;99111.88;5051116;28;20037;-69
2023/04/01 02:14:52;;;;;;;8.40;3.95;;;;;;;8.98;100.00;99122.25;5050904;28;20024;-70
2023/04/01 02:17:21;;;;;;;11.77;4.68;;;;;;;9.00;100.00;99122.03;5050712;28;20032;-70
2023/04/01 02:20:04;;;;;;;11.23;4.85;;;;;;;9.00;100.00;99128.16;5050565;28;20021;-69
2023/04/01 02:22:33;;;;;;;12.10;6.25;;;;;;;8.98;100.00;99124.13;5050765;28;20055;-69
2023/04/01 02:25:05;;;;;;;10.07;5.30;;;;;;;8.96;100.00;99121.69;5050702;28;20024;-69
2023/04/01 02:27:31;;;;;;;11.07;4.50;;;;;;;8.95;100.00;99129.88;5050764;28;20546;-70
2023/04/01 02:29:57;;;;;;;10.80;4.85;;;;;;;8.90;100.00;99127.09;5050549;28;20025;-70
2023/04/01 02:32:24;;;;;;;9.02;4.25;;;;;;;8.89;100.00;99134.28;5050306;28;20033;-70
2023/04/01 02:34:50;;;;;;;8.07;3.55;;;;;;;8.91;100.00;99139.38;5050481;28;20059;-70
2023/04/01 02:37:16;;;;;;;7.00;3.50;;;;;;;8.87;100.00;99133.69;5050303;28;20568;-70
2023/04/01 02:39:42;;;;;;;11.55;4.15;;;;;;;8.84;100.00;99130.69;5050335;28;20036;-70
2023/04/01 02:42:08;;;;;;;9.18;3.60;;;;;;;8.85;100.00;99137.59;5050380;28;20074;-69
2023/04/01 02:44:34;;;;;;;10.18;3.53;;;;;;;8.83;100.00;99137.84;5050261;28;20029;-69
2023/04/01 02:46:59;;;;;;;10.18;3.63;;;;;;;8.82;100.00;99135.41;5049859;28;20053;-69
2023/04/01 02:49:24;;;;;;;7.68;3.42;;;;;;;8.83;100.00;99145.00;5050233;28;20040;-69
2023/04/01 02:51:51;;;;;;;7.63;3.47;;;;;;;8.83;100.00;99147.66;5048556;28;20441;-70
2023/04/01 02:54:17;;;;;;;11.70;5.22;;;;;;;8.83;100.00;99142.34;5049928;28;20071;-70
2023/04/01 02:56:42;;;;;;;9.65;3.90;;;;;;;8.78;100.00;99133.22;5048602;28;20052;-70
2023/04/01 02:59:08;;;;;;;10.98;4.40;;;;;;;8.83;100.00;99142.34;5050039;28;20052;-69
2023/04/01 03:01:33;;;;;;;11.52;4.55;;;;;;;8.84;100.00;99151.94;5049772;28;20029;-70
2023/04/01 03:03:58;;;;;;;10.85;5.40;;;;;;;8.82;100.00;99152.16;5050103;28;20033;-69
2023/04/01 03:06:24;;;;;;;12.50;4.82;;;;;;;8.82;100.00;99154.03;5049921;28;20500;-69
2023/04/01 03:08:49;;;;;;;10.38;4.72;;;;;;;8.80;100.00;99148.13;5049863;28;20571;-69
2023/04/01 03:11:15;;;;;;;11.52;5.30;;;;;;;8.80;100.00;99151.56;5049780;28;20032;-69
2023/04/01 03:13:40;;;;;;;13.25;5.53;;;;;;;8.78;100.00;99166.97;5049603;28;20039;-70
2023/04/01 03:16:06;;;;;;;13.07;5.65;;;;;;;8.77;100.00;99167.97;5049595;28;20127;-69
2023/04/01 03:18:31;;;;;;;13.20;5.50;;;;;;;8.76;100.00;99153.09;5049611;28;20104;-69
2023/04/01 03:20:57;;;;;;;12.00;4.72;;;;;;;8.73;100.00;99158.84;5049537;28;20373;-69
2023/04/01 03:23:24;;;;;;;13.40;5.63;;;;;;;8.75;100.00;99162.91;5049552;28;20064;-70
2023/04/01 03:25:50;;;;;;;13.65;5.85;;;;;;;8.72;100.00;99162.53;5049631;28;20032;-69
2023/04/01 03:28:15;;;;;;;12.88;5.28;;;;;;;8.71;100.00;99169.69;5048050;28;20052;-70
2023/04/01 03:30:40;;;;;;;13.60;5.10;;;;;;;8.69;100.00;99161.13;5049273;28;20125;-70
2023/04/01 03:33:06;;;;;;;15.65;6.25;;;;;;;8.68;100.00;99162.19;5049462;28;20040;-69
2023/04/01 03:35:32;;;;;;;14.57;6.40;;;;;;;8.65;100.00;99167.97;5049415;28;20053;-69
2023/04/01 03:37:58;;;;;;;15.52;6.28;;;;;;;8.66;100.00;99166.91;5049467;28;20037;-70
2023/04/01 03:40:26;;;;;;;13.13;5.78;;;;;;;8.65;100.00;99170.63;5049189;28;20110;-70
2023/04/01 03:42:52;;;;;;;15.05;5.88;;;;;;;8.66;100.00;99169.56;5049300;28;20032;-69
2023/04/01 03:45:17;;;;;;;13.32;6.35;;;;;;;8.65;100.00;99172.47;5049230;28;20033;-69
2023/04/01 03:47:43;;;;;;;16.33;6.50;;;;;;;8.62;100.00;99167.56;5049104;28;20141;-70
2023/04/01 03:50:09;;;;;;;14.45;5.75;;;;;;;8.63;100.00;99172.69;5049097;28;20033;-70
2023/04/01 03:52:35;;;;;;;15.38;6.22;;;;;;;8.63;100.00;99174.53;5049240;28;20029;-70
2023/04/01 03:55:01;;;;;;;12.15;4.75;;;;;;;8.63;100.00;99169.22;5049110;28;20028;-69
2023/04/01 03:57:27;;;;;;;13.68;5.65;;;;;;;8.59;100.00;99179.47;5049082;28;20488;-70
2023/04/01 03:59:52;;;;;;;13.13;5.22;;;;;;;8.59;100.00;99176.81;5049097;28;20028;-70
2023/04/01 04:02:17;;;;;;;13.13;4.97;;;;;;;8.62;100.00;99181.69;5049195;28;20529;-70
2023/04/01 04:04:43;;;;;;;10.63;4.60;;;;;;;8.62;100.00;99183.53;5053310;28;20529;-70
2023/04/01 04:07:08;;;;;;;6.97;3.40;;;;;;;8.60;100.00;99178.44;5053081;28;20029;-70
2023/04/01 04:09:34;;;;;;;6.50;3.38;;;;;;;8.62;100.00;99187.00;5053173;28;20100;-70
2023/04/01 04:12:00;;;;;;;7.07;3.17;;;;;;;8.62;100.00;99186.19;5053290;28;20074;-69
2023/04/01 04:14:25;;;;;;;6.85;3.75;;;;;;;8.63;100.00;99190.47;5053012;28;20056;-69
2023/04/01 04:16:51;;;;;;;8.75;4.07;;;;;;;8.62;100.00;99188.84;5052951;28;20037;-69
2023/04/01 04:19:16;;;;;;;6.75;3.38;;;;;;;8.63;100.00;99195.78;5053075;28;20688;-69
2023/04/01 04:21:42;;;;;;;8.18;3.33;;;;;;;8.60;100.00;99199.72;5052949;28;20115;-70
2023/04/01 04:24:08;;;;;;;11.02;3.97;;;;;;;8.57;100.00;99194.84;5052874;28;20534;-70
2023/04/01 04:26:34;;;;;;;9.00;4.20;;;;;;;8.63;100.00;99209.06;5052806;28;20384;-69
2023/04/01 04:29:00;;;;;;;5.13;2.72;;;;;;;8.60;100.00;99201.56;5052800;28;20029;-70
2023/04/01 04:31:25;;;;;;;7.78;3.45;;;;;;;8.60;100.00;99206.88;5052940;28;20035;-70
2023/04/01 04:33:51;;;;;;;6.07;2.80;;;;;;;8.57;100.00;99208.13;5052690;28;20498;-69
2023/04/01 04:36:18;;;;;;;6.60;3.65;;;;;;;8.51;100.00;99198.38;5052593;28;20029;-70
2023/04/01 04:38:43;;;;;;;6.47;3.05;;;;;;;8.56;100.00;99211.81;5052538;28;20029;-68
2023/04/01 04:41:11;;;;;;;6.65;2.88;;;;;;;8.53;100.00;99213.06;5052683;28;20040;-67
2023/04/01 04:43:37;;;;;;;6.32;2.55;;;;;;;8.52;100.00;99218.63;5052421;28;20380;-68
2023/04/01 04:46:09;;;;;;;5.40;2.70;;;;;;;8.51;100.00;99209.84;5052439;28;20036;-68
2023/04/01 04:48:35;;;;;;;4.97;3.03;;;;;;;8.50;100.00;99216.19;5052442;28;20029;-68
2023/04/01 04:51:01;;;;;;;6.07;2.90;;;;;;;8.47;100.00;99210.50;5052494;28;20067;-68
2023/04/01 04:53:27;;;;;;;8.00;3.00;;;;;;;8.45;100.00;99218.69;5052431;28;20028;-68
2023/04/01 04:55:53;;;;;;;5.65;2.85;;;;;;;8.47;100.00;99216.63;5052313;28;20040;-68
2023/04/01 04:58:18;;;;;;;5.72;2.78;;;;;;;8.45;100.00;99231.97;5052270;28;20029;-68
2023/04/01 05:00:45;;;;;;;4.95;3.00;;;;;;;8.44;100.00;99234.88;5052153;28;20368;-68
2023/04/01 05:03:11;;;;;;;5.85;2.63;;;;;;;8.43;100.00;99234.03;5052220;28;20033;-68
2023/04/01 05:05:36;;;;;;;5.70;2.67;;;;;;;8.42;100.00;99239.59;5052108;28;20032;-68
2023/04/01 05:08:03;;;;;;;3.67;2.05;;;;;;;8.45;100.00;99241.78;5051951;28;20049;-68
2023/04/01 05:10:28;;;;;;;6.32;2.78;;;;;;;8.42;100.00;99234.28;5052008;28;20063;-68
2023/04/01 05:12:53;;;;;;;5.43;3.15;;;;;;;8.44;100.00;99248.97;5051754;28;20475;-68
2023/04/01 05:15:19;;;;;;;4.97;2.92;;;;;;;8.46;100.00;99254.88;5051179;28;20105;-68
2023/04/01 05:17:45;;;;;;;7.50;3.42;;;;;;;8.44;100.00;99256.13;5051564;28;20387;-68
2023/04/01 05:20:13;;;;;;;7.13;3.47;;;;;;;8.44;100.00;99256.13;5051755;28;20029;-68
2023/04/01 05:22:38;;;;;;;8.52;3.28;;;;;;;8.42;100.00;99252.88;5051867;28;20403;-68
2023/04/01 05:25:04;;;;;;;7.35;3.38;;;;;;;8.44;100.00;99264.09;5051739;28;20020;-68
2023/04/01 05:27:29;;;;;;;6.55;3.35;;;;;;;8.44;100.00;99270.22;5051619;28;20075;-68
2023/04/01 05:29:55;;;;;;;8.45;3.42;;;;;;;8.44;100.00;99270.22;5051825;28;20036;-67
2023/04/01 05:32:21;;;;;;;6.30;3.38;;;;;;;8.45;100.00;99269.16;5051731;28;20059;-68
2023/04/01 05:34:46;;;;;;;6.72;3.97;;;;;;;8.46;100.00;99272.63;5051654;28;20166;-67
2023/04/01 05:37:11;;;;;;;6.20;3.85;;;;;;;8.41;100.00;99270.66;5051350;28;20025;-68
2023/04/01 05:39:38;;;;;;;6.57;3.33;;;;;;;8.39;100.00;99271.88;5051486;28;20388;-68
2023/04/01 05:42:06;;;;;;;8.07;3.47;;;;;;;8.46;100.00;99285.91;5051320;28;20533;-68
2023/04/01 05:44:31;;;;;;;7.30;3.80;;;;;;;8.46;100.00;99289.41;5051267;28;20028;-67
2023/04/01 05:46:57;;;;;;;7.63;3.28;;;;;;;8.48;100.00;99297.13;5051050;28;20526;-68
2023/04/01 05:49:22;;;;;;;8.77;3.75;;;;;;;8.48;100.00;99295.28;5051073;28;20028;-68
2023/04/01 05:51:47;;;;;;;7.53;3.47;;;;;;;8.50;100.00;99305.69;5051355;28;20036;-68
2023/04/01 05:54:13;;;;;;;9.90;4.22;;;;;;;8.50;100.00;99305.69;5051101;28;20032;-67
2023/04/01 05:56:38;;;;;;;7.45;3.40;;;;;;;8.50;100.00;99303.03;5051091;28;20039;-67
2023/04/01 05:59:03;;;;;;;9.93;4.43;;;;;;;8.51;100.00;99313.47;5051133;28;20025;-67
2023/04/01 06:01:29;;;;;;;8.35;4.45;;;;;;;8.51;100.00;99310.81;5050939;28;20071;-67
2023/04/01 06:03:54;;;;;;;7.95;4.10;;;;;;;8.52;100.00;99312.44;5050893;28;20033;-68
2023/04/01 06:06:28;;;;;;;9.65;4.88;;;;;;;8.56;100.00;99326.06;5050860;28;20067;-67
2023/04/01 06:08:55;;;;;;;10.75;5.03;;;;;;;8.58;100.00;99324.00;5050921;28;20472;-68
2023/04/01 06:11:32;;;;;;;9.80;4.25;;;;;;;8.61;100.00;99330.72;5050911;28;20044;-67
2023/04/01 06:14:15;;;;;;;11.07;5.13;;;;;;;8.62;100.00;99337.66;5050865;28;20079;-68
2023/04/01 06:16:59;;;;;;;12.70;5.13;;;;;;;8.65;100.00;99334.59;5051180;28;20406;-68
2023/04/01 06:19:49;;;;;;;13.45;5.68;;;;;;;8.64;100.00;99339.06;5050704;28;20025;-68
2023/04/01 06:22:37;;;;;;;15.68;6.65;;;;;;;8.68;100.00;99350.06;5050717;28;20031;-67
2023/04/01 06:25:21;;;;;;;15.85;6.25;;;;;;;8.70;100.00;99350.69;5050397;28;20473;-67
2023/04/01 06:27:59;;;;;;;16.80;7.57;;;;;;;8.69;100.00;99351.69;5048657;28;20044;-67
2023/04/01 06:30:57;;;;;;;18.45;8.50;;;;;;;8.73;100.00;99361.66;5050425;28;20037;-68
2023/04/01 06:33:50;;;;;;;15.85;7.00;;;;;;;8.75;100.00;99369.41;5050396;28;20115;-67
2023/04/01 06:36:43;;;;;;;13.13;5.80;;;;;;;8.75;100.00;99364.91;5050801;28;20035;-67
2023/04/01 06:39:30;;;;;;;15.82;6.68;;;;;;;8.75;100.00;99367.59;5050451;28;20028;-67
2023/04/01 06:42:33;;;;;;;14.27;5.70;;;;;;;8.77;100.00;99370.00;5050207;28;20130;-68
2023/04/01 06:45:08;;;;;;;14.20;7.03;;;;;;;8.76;100.00;99371.84;5050468;28;20056;-68
2023/04/01 06:47:42;;;;;;;15.73;6.22;;;;;;;8.82;100.00;99374.66;5049738;28;20160;-68
2023/04/01 06:50:36;;;;;;;15.48;7.03;;;;;;;8.80;100.00;99374.06;5050143;28;20384;-67
2023/04/01 06:53:19;;;;;;;14.55;7.03;;;;;;;8.82;100.00;99372.81;5050022;28;20028;-68
2023/04/01 06:55:49;;;;;;;15.02;5.97;;;;;;;8.87;100.00;99383.59;5049975;28;20037;-67
2023/04/01 06:58:22;;;;;;;14.15;6.70;;;;;;;8.88;100.00;99395.88;5049748;28;20036;-67
2023/04/01 07:00:52;;;;;;;16.08;8.15;;;;;;;8.89;100.00;99397.47;5048920;28;20545;-68
2023/04/01 07:03:39;;;;;;;17.58;6.03;;;;;;;8.93;100.00;99408.47;5049761;28;20053;-68
2023/04/01 07:06:28;;;;;;;14.77;5.82;;;;;;;8.95;100.00;99403.75;5049726;28;20348;-68
2023/04/01 07:09:00;;;;;;;14.82;6.60;;;;;;;8.96;100.00;99408.03;5048997;28;20669;-68
2023/04/01 07:11:31;;;;;;;14.40;6.30;;;;;;;9.00;100.00;99414.53;5049737;28;20391;-68
2023/04/01 07:14:07;;;;;;;16.23;7.28;;;;;;;9.03;100.00;99407.97;5050100;28;20017;-68
2023/04/01 07:16:38;;;;;;;16.60;7.53;;;;;;;9.03;100.00;99418.59;5049417;28;20037;-68
2023/04/01 07:19:16;;;;;;;20.30;6.28;;;;;;;9.05;100.00;99425.31;5049697;28;20090;-67
2023/04/01 07:21:47;;;;;;;15.05;6.18;;;;;;;9.01;100.00;99424.13;5049716;28;20056;-67
2023/04/01 07:24:24;;;;;;;14.50;6.10;;;;;;;9.07;100.00;99420.59;5049429;28;20391;-68
2023/04/01 07:26:54;;;;;;;17.52;8.10;;;;;;;9.08;100.00;99434.72;5049445;28;20507;-67
2023/04/01 07:29:19;;;;;;;18.35;7.70;;;;;;;9.09;100.00;99434.50;5048893;28;20032;-69
2023/04/01 07:31:47;;;;;;;17.50;7.20;;;;;;;9.11;100.00;99440.38;5049445;28;20491;-68
2023/04/01 07:34:26;;;;;;;18.52;6.60;;;;;;;9.12;100.00;99444.69;5049825;28;20039;-68
2023/04/01 07:37:03;;;;;;;15.40;7.25;;;;;;;9.13;100.00;99440.19;5049378;28;20105;-68
2023/04/01 07:39:54;;;;;;;16.27;5.82;;;;;;;9.17;100.00;99447.50;5049113;28;20096;-68
2023/04/01 07:42:41;;;;;;;16.42;7.22;;;;;;;9.16;100.00;99445.06;5049252;28;20085;-68
2023/04/01 07:45:34;;;;;;;14.90;5.30;;;;;;;9.28;100.00;99463.75;5049152;28;20063;-68
2023/04/01 07:48:12;;;;;;;14.40;5.85;;;;;;;9.32;100.00;99457.75;5048981;28;20111;-69
2023/04/01 07:51:03;;;;;;;13.32;5.50;;;;;;;9.39;100.00;99468.31;5049198;28;20057;-68
2023/04/01 07:53:52;;;;;;;16.90;6.13;;;;;;;9.41;100.00;99479.56;5049138;28;20090;-68
2023/04/01 07:56:40;;;;;;;14.98;7.35;;;;;;;9.47;100.00;99468.03;5049476;28;20025;-69
2023/04/01 07:59:14;;;;;;;18.35;7.70;;;;;;;9.52;100.00;99478.00;5049184;28;21007;-69
2023/04/01 08:01:50;;;;;;;13.07;5.43;;;;;;;9.56;100.00;99479.16;5049127;28;20032;-68
2023/04/01 08:04:22;;;;;;;12.98;5.18;;;;;;;9.60;100.00;99486.50;5049287;28;20024;-69
2023/04/01 08:07:00;;;;;;;16.00;7.95;;;;;;;9.64;100.00;99487.69;5049263;28;20128;-69
2023/04/01 08:09:53;;;;;;;14.95;5.18;;;;;;;9.73;100.00;99482.03;5049329;28;20358;-68
2023/04/01 08:12:48;;;;;;;15.95;6.50;;;;;;;9.75;100.00;99486.09;5049173;28;20021;-68
2023/04/01 08:15:14;;;;;;;13.88;5.45;;;;;;;9.73;100.00;99501.47;5049123;28;20020;-68
2023/04/01 08:18:04;;;;;;;12.10;4.88;;;;;;;9.78;100.00;99490.16;5049345;28;20431;-68
2023/04/01 08:20:50;;;;;;;12.93;5.10;;;;;;;9.69;100.00;99502.16;5048250;28;20476;-68
2023/04/01 08:23:44;;;;;;;15.52;5.50;;;;;;;9.70;100.00;99509.13;5048872;28;20094;-68
2023/04/01 08:26:45;;;;;;;14.75;7.30;;;;;;;9.65;100.00;99510.59;5049039;28;20024;-71
2023/04/01 08:29:35;;;;;;;17.35;7.05;;;;;;;9.57;100.00;99516.22;5047715;28;20578;-71
2023/04/01 08:32:15;;;;;;;13.60;5.65;;;;;;;9.54;100.00;99526.50;5047519;28;20033;-70
2023/04/01 08:34:47;;;;;;;14.77;6.72;;;;;;;9.45;100.00;99515.31;5047517;28;20483;-69
2023/04/01 08:37:19;;;;;;;15.82;7.85;;;;;;;9.51;100.00;99524.25;5048854;28;20033;-69
2023/04/01 08:39:46;;;;;;;20.67;8.77;;;;;;;9.50;100.00;99523.47;5049085;28;20075;-69
2023/04/01 08:42:42;;;;;;;19.85;8.95;;;;;;;9.47;100.00;99526.56;5048980;28;20041;-69
2023/04/01 08:45:35;;;;;;;15.38;7.47;;;;;;;9.48;100.00;99536.16;5048176;28;20978;-69
2023/04/01 08:48:08;;;;;;;16.10;6.93;;;;;;;9.49;100.00;99535.16;5048618;28;20524;-69
2023/04/01 08:50:51;;;;;;;19.88;8.68;;;;;;;9.48;100.00;99540.69;5050874;28;20060;-69
2023/04/01 08:53:41;;;;;;;17.05;8.45;;;;;;;9.52;100.00;99550.69;5052582;28;20052;-69
2023/04/01 08:56:45;;;;;;;18.65;6.72;;;;;;;9.53;100.00;99548.81;5052668;28;20021;-69
2023/04/01 08:59:28;;;;;;;17.15;8.23;;;;;;;9.61;100.00;99562.63;5033283;28;20052;-70
2023/04/01 09:02:15;;;;;;;19.48;8.80;;;;;;;9.65;100.00;99558.50;5049812;28;20037;-70
2023/04/01 09:05:10;;;;;;;17.70;8.90;;;;;;;9.64;100.00;99569.38;5051307;28;20404;-71
2023/04/01 09:07:49;;;;;;;22.65;9.40;;;;;;;9.57;100.00;99577.44;5050066;28;20169;-78
2023/04/01 09:10:33;;;;;;;16.85;7.07;;;;;;;9.56;100.00;99580.31;5051731;28;20037;-63
2023/04/01 09:13:07;;;;;;;21.50;9.93;;;;;;;9.52;100.00;99590.59;5052178;28;20056;-69
2023/04/01 09:15:49;;;;;;;14.23;6.43;;;;;;;9.52;100.00;99590.59;5052052;28;20459;-69
2023/04/01 09:18:36;;;;;;;19.33;9.23;;;;;;;9.50;100.00;99589.19;5052114;28;20029;-61
2023/04/01 09:21:19;;;;;;;15.15;6.93;;;;;;;9.51;100.00;99596.13;5051165;28;20087;-67
2023/04/01 09:24:22;;;;;;;17.15;7.45;;;;;;;9.51;100.00;99602.28;5051737;28;20029;-67
2023/04/01 09:27:03;;;;;;;15.82;7.85;;;;;;;9.52;100.00;99598.59;5052013;28;20029;-67
2023/04/01 09:29:37;;;;;;;17.48;6.57;;;;;;;9.56;100.00;99602.44;5051105;28;20033;-67
2023/04/01 09:32:11;;;;;;;15.32;7.07;;;;;;;9.62;100.00;99612.19;5051462;28;20036;-67
2023/04/01 09:34:50;;;;;;;15.82;6.40;;;;;;;9.65;100.00;99610.94;5051677;28;20112;-67
2023/04/01 09:37:21;;;;;;;17.73;7.68;;;;;;;9.61;100.00;99615.88;5051645;28;20024;-67
2023/04/01 09:40:11;;;;;;;20.83;8.70;;;;;;;9.65;100.00;99616.25;5051544;28;20496;-66
2023/04/01 09:43:14;;;;;;;13.27;6.15;;;;;;;9.62;100.00;99617.53;5051189;28;20495;-66
2023/04/01 09:46:01;;;;;;;18.55;7.00;;;;;;;9.62;100.00;99622.84;5051548;28;20089;-66
2023/04/01 09:48:51;;;;;;;16.58;8.50;;;;;;;9.67;100.00;99630.19;5051058;28;20403;-66
2023/04/01 09:51:39;;;;;;;15.02;6.07;;;;;;;9.73;100.00;99633.81;5051574;28;20044;-66
2023/04/01 09:54:14;;;;;;;17.80;7.03;;;;;;;9.76;100.00;99625.38;5051352;28;20017;-66
2023/04/01 09:57:01;;;;;;;18.60;7.10;;;;;;;9.80;100.00;99638.03;5051507;28;20025;-66
2023/04/01 10:00:04;;;;;;;15.50;7.95;;;;;;;9.83;100.00;99640.22;5051412;28;20029;-66
2023/04/01 10:02:48;;;;;;;13.40;6.07;;;;;;;9.81;100.00;99636.16;5050887;28;20041;-66
2023/04/01 10:05:22;;;;;;;11.63;4.97;;;;;;;9.79;100.00;99648.88;5051363;28;20124;-66
2023/04/01 10:08:02;;;;;;;14.95;6.30;;;;;;;9.82;100.00;99643.09;5051165;28;20025;-66
2023/04/01 10:10:43;;;;;;;16.00;7.13;;;;;;;9.87;100.00;99645.91;5051265;28;20033;-66
2023/04/01 10:13:45;;;;;;;13.48;5.80;;;;;;;9.97;100.00;99648.88;5051212;28;20025;-66
2023/04/01 10:16:21;;;;;;;15.00;6.72;;;;;;;10.01;100.00;99639.44;5050943;28;20028;-66
2023/04/01 10:19:07;;;;;;;16.40;6.80;;;;;;;10.07;100.00;99651.84;5050929;28;20029;-66
2023/04/01 10:21:51;;;;;;;10.88;5.20;;;;;;;10.12;100.00;99661.84;5050654;28;20082;-66
2023/04/01 10:24:54;;;;;;;14.65;5.97;;;;;;;10.17;100.00;99661.97;5050924;28;20078;-67
2023/04/01 10:27:28;;;;;;;13.77;6.65;;;;;;;10.18;100.00;99658.28;5050641;28;20486;-67
2023/04/01 10:30:27;;;;;;;13.27;6.13;;;;;;;10.20;100.00;99663.38;5050722;28;20036;-67
2023/04/01 10:33:15;;;;;;;13.82;5.72;;;;;;;10.22;100.00;99664.00;5050652;28;20506;-67
2023/04/01 10:36:09;;;;;;;12.10;5.97;;;;;;;10.20;100.00;99674.06;5050398;28;20063;-67
2023/04/01 10:39:26;;;;;;;13.80;5.75;;;;;;;10.16;100.00;99667.53;5048168;28;20057;-67
2023/04/01 10:42:05;;;;;;;13.27;5.50;;;;;;;10.09;100.00;99673.75;5048646;28;20041;-67
2023/04/01 10:45:02;;;;;;;10.20;4.93;;;;;;;10.14;100.00;99674.91;5050103;28;20032;-67
2023/04/01 10:47:45;;;;;;;14.43;4.93;;;;;;;10.16;100.00;99676.31;5050125;28;20067;-67
2023/04/01 10:50:47;;;;;;;11.30;5.25;;;;;;;10.19;100.00;99683.91;5050634;28;20036;-67
2023/04/01 10:53:27;;;;;;;9.82;3.90;;;;;;;10.13;100.00;99679.44;5050121;28;20040;-67
2023/04/01 10:56:44;;;;;;;8.93;4.63;;;;;;;10.17;100.00;99687.81;5050435;28;20443;-67
2023/04/01 10:59:44;;;;;;;7.60;3.97;;;;;;;10.19;100.00;99678.56;5026146;28;20052;-67
2023/04/01 11:02:58;;;;;;;8.63;4.53;;;;;;;10.23;100.00;99694.91;5050364;28;20023;-67
2023/04/01 11:05:54;;;;;;;7.50;4.05;;;;;;;10.29;100.00;99699.38;5047030;28;20060;-67
2023/04/01 11:09:01;;;;;;;7.13;3.50;;;;;;;10.28;100.00;99705.75;5049851;28;20040;-67
2023/04/01 11:11:57;;;;;;;8.95;5.35;;;;;;;10.35;100.00;99698.50;5050160;28;20443;-66
2023/04/01 11:14:34;;;;;;;9.45;5.43;;;;;;;10.39;100.00;99701.53;5038627;28;20021;-67
2023/04/01 11:17:30;;;;;;;9.70;5.07;;;;;;;10.39;100.00;99705.00;5034845;28;20064;-67
2023/04/01 11:20:02;;;;;;;11.57;4.60;;;;;;;10.36;100.00;99700.13;5036218;28;20033;-67
2023/04/01 11:22:58;;;;;;;8.98;4.63;;;;;;;10.31;100.00;99708.78;5035347;28;20024;-66
2023/04/01 11:25:41;;;;;;;10.85;5.65;;;;;;;10.29;100.00;99713.50;5033637;28;20043;-68
2023/04/01 11:28:23;;;;;;;14.85;6.47;;;;;;;10.30;100.00;99715.16;5034452;28;20029;-70
2023/04/01 11:31:06;;;;;;;;;;;;;;;10.38;100.00;99716.72;5034226;28;20056;-68
2023/04/01 11:33:52;;;;;;;14.77;7.45;;;;;;;10.33;100.00;99716.56;5034984;28;19967;-70
2023/04/01 11:36:23;;;;;;;10.85;5.80;;;;;;;10.34;100.00;99726.16;5033792;28;20044;-67
2023/04/01 11:38:50;;;;;;;17.58;6.65;;;;;;;10.36;100.00;99726.78;5034614;28;20101;-66
2023/04/01 11:41:34;;;;;;;11.82;6.15;;;;;;;10.38;100.00;99734.56;5034985;28;20049;-67
2023/04/01 11:44:19;;;;;;;14.45;7.00;;;;;;;10.41;100.00;99736.78;5034355;28;20021;-67
2023/04/01 11:46:47;;;;;;;15.27;7.22;;;;;;;10.42;100.00;99733.06;5033543;28;20401;-66
2023/04/01 11:49:40;;;;;;;14.30;7.25;;;;;;;10.57;100.00;99740.69;5034678;28;20038;-66
2023/04/01 11:52:12;;;;;;;15.18;8.23;;;;;;;10.56;100.00;99745.22;5034109;28;20400;-68
2023/04/01 11:55:11;;;;;;;17.10;7.95;;;;;;;10.55;100.00;99745.41;5033216;28;20033;-67
2023/04/01 11:58:05;;;;;;;17.83;9.07;;;;;;;10.56;100.00;99744.38;5033860;28;20396;-67
2023/04/01 12:00:48;;;;;;;14.15;7.65;;;;;;;10.51;100.00;99753.06;5035144;28;20032;-67
2023/04/01 12:03:38;;;;;;;17.77;7.90;;;;;;;10.51;100.00;99756.53;5033387;28;20052;-66